Maldives Meteorological Service

METAR

Station
VRMM
METAR VRMM 221400Z 08010KT 9999 SCT018 30/25 Q1010 NOSIG=
VRMH
METAR VRMH 221400Z 05004KT 9999 FEW018TCU 29/25 Q1011=
VRMK
METAR VRMK 221400Z 08005KT 9999 FEW019 29/25 Q1011=
VRMT
METAR VRMT 221400Z 09004KT 9999 FEW018TCU 29/25 Q1010=
VRMG
METAR VRMG 221400Z 09003KT 9999 FEW018TCU SCT270 29/25 Q1011 NOSIG=
Last Updated : 2019-03-22 19:00:08

SPECI

Station
VRMM
VRMH
VRMK
VRMT
VRMG
Last Updated : 2019-03-22 19:00:08